createdAt,value
2023-01-26T00:01:19.180Z,87.76
2023-01-26T00:03:46.686Z,86.82
2023-01-26T00:06:16.233Z,85.94
2023-01-26T00:08:46.214Z,84.60
2023-01-26T00:11:15.966Z,82.90
2023-01-26T00:13:43.173Z,81.78
2023-01-26T00:16:12.326Z,80.89
2023-01-26T00:18:40.244Z,81.39
2023-01-26T00:21:08.831Z,82.71
2023-01-26T00:23:36.285Z,82.94
2023-01-26T00:26:06.526Z,80.76
2023-01-26T00:28:33.421Z,80.99
2023-01-26T00:31:25.443Z,81.30
2023-01-26T00:33:54.091Z,81.52
2023-01-26T00:36:21.603Z,86.66
2023-01-26T00:38:48.674Z,86.55
2023-01-26T00:41:33.999Z,88.02
2023-01-26T00:44:01.610Z,90.05
2023-01-26T00:46:28.881Z,87.61
2023-01-26T00:48:55.993Z,85.29
2023-01-26T00:51:23.027Z,90.30
2023-01-26T00:53:49.927Z,89.15
2023-01-26T00:56:16.870Z,88.42
2023-01-26T00:58:45.661Z,86.44
2023-01-26T01:01:12.792Z,86.86
2023-01-26T01:03:42.544Z,85.61
2023-01-26T01:06:09.397Z,84.22
2023-01-26T01:08:36.334Z,83.60
2023-01-26T01:11:09.003Z,81.86
2023-01-26T01:13:36.047Z,82.36
2023-01-26T01:16:11.030Z,83.01
2023-01-26T01:18:39.408Z,82.23
2023-01-26T01:21:11.444Z,81.95
2023-01-26T01:23:38.812Z,83.28
2023-01-26T01:26:06.470Z,83.21
2023-01-26T01:28:35.049Z,81.35
2023-01-26T01:31:07.131Z,80.73
2023-01-26T01:33:34.174Z,81.97
2023-01-26T01:36:03.544Z,82.97
2023-01-26T01:38:31.221Z,86.71
2023-01-26T01:40:58.359Z,89.03
2023-01-26T01:43:26.948Z,89.42
2023-01-26T01:45:54.827Z,88.79
2023-01-26T01:48:31.367Z,86.43
2023-01-26T01:51:04.388Z,86.36
2023-01-26T01:53:39.490Z,88.36
2023-01-26T01:56:12.970Z,90.50
2023-01-26T01:58:43.249Z,88.97
2023-01-26T02:01:10.866Z,88.37
2023-01-26T02:03:39.255Z,91.36
2023-01-26T02:06:19.069Z,93.24
2023-01-26T02:08:49.470Z,93.57
2023-01-26T02:11:24.897Z,93.68
2023-01-26T02:13:54.787Z,91.52
2023-01-26T02:16:21.739Z,93.37
2023-01-26T02:18:48.781Z,93.48
2023-01-26T02:21:21.142Z,94.03
2023-01-26T02:24:11.358Z,95.20
2023-01-26T02:26:38.796Z,94.31
2023-01-26T02:29:09.589Z,93.21
2023-01-26T02:31:41.743Z,92.97
2023-01-26T02:34:08.728Z,94.04
2023-01-26T02:36:37.269Z,91.84
2023-01-26T02:39:23.383Z,92.13
2023-01-26T02:42:10.257Z,93.22
2023-01-26T02:44:41.023Z,96.42
2023-01-26T02:47:13.765Z,94.28
2023-01-26T02:49:47.514Z,91.52
2023-01-26T02:52:21.163Z,89.60
2023-01-26T02:55:13.935Z,91.91
2023-01-26T02:57:41.446Z,90.42
2023-01-26T03:00:14.591Z,90.33
2023-01-26T03:02:42.296Z,90.45
2023-01-26T03:05:09.618Z,90.77
2023-01-26T03:07:36.670Z,91.39
2023-01-26T03:10:04.695Z,91.10
2023-01-26T03:12:31.903Z,92.34
2023-01-26T03:15:17.903Z,90.27
2023-01-26T03:17:45.087Z,90.80
2023-01-26T03:20:30.572Z,91.17
2023-01-26T03:23:16.192Z,90.59
2023-01-26T03:26:02.345Z,90.82
2023-01-26T03:28:33.353Z,93.47
2023-01-26T03:31:00.453Z,94.34
2023-01-26T03:33:30.203Z,96.27
2023-01-26T03:35:57.129Z,93.84
2023-01-26T03:38:24.381Z,92.45
2023-01-26T03:41:16.887Z,91.57
2023-01-26T03:44:02.395Z,90.13
2023-01-26T03:46:48.039Z,88.17
2023-01-26T03:49:34.132Z,87.71
2023-01-26T03:52:19.793Z,88.57
2023-01-26T03:55:06.515Z,91.38
2023-01-26T03:57:33.469Z,91.97
2023-01-26T04:00:00.468Z,91.52
2023-01-26T04:02:46.710Z,90.85
2023-01-26T04:05:32.234Z,90.36
2023-01-26T04:08:27.037Z,90.47
2023-01-26T04:11:02.357Z,89.92
2023-01-26T04:13:48.444Z,90.78
2023-01-26T04:16:41.208Z,90.87
2023-01-26T04:19:27.399Z,90.38
2023-01-26T04:21:54.263Z,90.31
2023-01-26T04:24:22.622Z,89.78
2023-01-26T04:26:54.037Z,89.33
2023-01-26T04:29:25.858Z,90.39
2023-01-26T04:31:52.762Z,91.91
2023-01-26T04:34:22.147Z,94.26
2023-01-26T04:36:49.578Z,95.30
2023-01-26T04:39:17.708Z,95.76
2023-01-26T04:41:48.174Z,94.84
2023-01-26T04:44:17.044Z,93.54
2023-01-26T04:46:44.443Z,92.55
2023-01-26T04:49:13.558Z,90.85
2023-01-26T04:51:40.886Z,89.86
2023-01-26T04:54:08.329Z,92.02
2023-01-26T04:56:39.183Z,92.19
2023-01-26T04:59:08.120Z,90.71
2023-01-26T05:01:39.673Z,90.01
2023-01-26T05:04:07.827Z,89.82
2023-01-26T05:06:36.377Z,88.74
2023-01-26T05:09:03.525Z,88.66
2023-01-26T05:11:32.563Z,87.92
2023-01-26T05:14:20.712Z,85.81
2023-01-26T05:17:09.506Z,86.80
2023-01-26T05:19:42.229Z,88.21
2023-01-26T05:22:21.053Z,86.54
2023-01-26T05:25:26.496Z,85.93
2023-01-26T05:28:09.739Z,84.51
2023-01-26T05:30:36.843Z,83.92
2023-01-26T05:33:06.769Z,83.02
2023-01-26T05:35:35.004Z,83.63
2023-01-26T05:38:03.173Z,83.38
2023-01-26T05:40:32.330Z,83.68
2023-01-26T05:43:00.203Z,83.20
2023-01-26T05:45:45.318Z,83.88
2023-01-26T05:48:14.295Z,86.68
2023-01-26T05:50:41.415Z,89.79
2023-01-26T05:53:17.019Z,91.94
2023-01-26T05:55:44.415Z,95.62
2023-01-26T05:58:11.774Z,98.14
2023-01-26T06:00:40.514Z,98.68
2023-01-26T06:03:19.635Z,98.79
2023-01-26T06:05:53.948Z,97.90
2023-01-26T06:08:43.489Z,97.72
2023-01-26T06:11:28.805Z,97.87
2023-01-26T06:14:14.349Z,98.07
2023-01-26T06:16:41.702Z,97.56
2023-01-26T06:19:10.966Z,96.51
2023-01-26T06:21:38.773Z,96.45
2023-01-26T06:24:06.268Z,96.05
2023-01-26T06:26:33.331Z,95.08
2023-01-26T06:29:00.247Z,95.98
2023-01-26T06:31:30.868Z,95.90
2023-01-26T06:34:00.027Z,95.22
2023-01-26T06:36:28.403Z,92.98
2023-01-26T06:38:57.149Z,91.83
2023-01-26T06:41:24.886Z,91.17
2023-01-26T06:43:52.044Z,89.49
2023-01-26T06:46:19.725Z,89.06
2023-01-26T06:48:47.683Z,90.03
2023-01-26T06:51:15.611Z,90.26
2023-01-26T06:53:47.475Z,89.43
2023-01-26T06:56:38.071Z,88.21
2023-01-26T06:59:23.136Z,85.84
2023-01-26T07:02:20.965Z,84.73
2023-01-26T07:04:48.828Z,84.06
2023-01-26T07:07:15.827Z,81.22
2023-01-26T07:09:42.751Z,82.28
2023-01-26T07:12:09.637Z,83.60
2023-01-26T07:14:36.714Z,80.00
2023-01-26T07:17:03.854Z,76.73
2023-01-26T07:19:33.267Z,79.41
2023-01-26T07:22:01.380Z,78.74
2023-01-26T07:24:28.989Z,79.55
2023-01-26T07:26:57.027Z,81.49
2023-01-26T07:29:23.924Z,73.01
2023-01-26T07:31:51.372Z,64.49
2023-01-26T07:34:18.331Z,61.41
2023-01-26T07:36:45.666Z,63.31
2023-01-26T07:39:12.674Z,60.00
2023-01-26T07:41:39.563Z,61.86
2023-01-26T07:44:26.642Z,61.35
2023-01-26T07:46:54.724Z,64.71
2023-01-26T07:49:21.743Z,68.58
2023-01-26T07:51:48.594Z,69.52
2023-01-26T07:54:15.471Z,65.34
2023-01-26T07:56:44.276Z,62.30
2023-01-26T07:59:12.493Z,62.21
2023-01-26T08:01:39.611Z,61.96
2023-01-26T08:04:07.557Z,61.05
2023-01-26T08:06:34.458Z,58.09
2023-01-26T08:09:01.492Z,55.82
2023-01-26T08:11:28.476Z,54.63
2023-01-26T08:13:55.871Z,55.16
2023-01-26T08:16:23.036Z,55.51
2023-01-26T08:18:49.942Z,54.15
2023-01-26T08:21:18.271Z,56.15
2023-01-26T08:23:52.156Z,56.75
2023-01-26T08:26:20.681Z,56.68
2023-01-26T08:28:48.740Z,58.64
2023-01-26T08:31:20.022Z,57.20
2023-01-26T08:33:52.454Z,58.50
2023-01-26T08:36:22.346Z,63.43
2023-01-26T08:38:50.091Z,62.72
2023-01-26T08:41:17.477Z,68.65
2023-01-26T08:43:44.368Z,68.09
2023-01-26T08:46:11.460Z,65.46
2023-01-26T08:48:38.778Z,64.42
2023-01-26T08:51:07.824Z,64.53
2023-01-26T08:53:37.739Z,63.92
2023-01-26T08:56:06.472Z,64.87
2023-01-26T08:58:33.926Z,65.95
2023-01-26T09:01:08.821Z,66.29
2023-01-26T09:03:36.300Z,70.49
2023-01-26T09:06:05.143Z,70.29
2023-01-26T09:08:32.246Z,70.44
2023-01-26T09:10:59.404Z,72.20
2023-01-26T09:13:26.565Z,71.81
2023-01-26T09:15:53.959Z,71.21
2023-01-26T09:18:20.907Z,70.34
2023-01-26T09:20:47.917Z,71.62
2023-01-26T09:23:17.007Z,71.47
2023-01-26T09:25:44.318Z,69.73
2023-01-26T09:28:11.269Z,70.15
2023-01-26T09:30:38.222Z,71.95
2023-01-26T09:33:06.961Z,73.67
2023-01-26T09:35:34.187Z,74.74
2023-01-26T09:38:01.130Z,75.62
2023-01-26T09:41:06.335Z,77.37
2023-01-26T09:43:41.982Z,80.28
2023-01-26T09:46:23.950Z,81.89
2023-01-26T09:49:07.424Z,80.02
2023-01-26T09:52:03.813Z,79.11
2023-01-26T09:54:42.268Z,78.14
2023-01-26T09:57:15.684Z,77.01
2023-01-26T10:00:00.374Z,79.43
2023-01-26T10:02:56.212Z,78.49
2023-01-26T10:05:40.449Z,79.73
2023-01-26T10:08:13.290Z,82.19
2023-01-26T10:10:49.498Z,82.89
2023-01-26T10:13:17.612Z,83.42
2023-01-26T10:16:02.583Z,82.69
2023-01-26T10:18:33.676Z,81.67
2023-01-26T10:21:04.383Z,83.49
2023-01-26T10:23:35.798Z,84.11
2023-01-26T10:26:14.274Z,84.40
2023-01-26T10:28:43.801Z,83.92
2023-01-26T10:31:26.962Z,86.66
2023-01-26T10:33:59.882Z,88.41
2023-01-26T10:36:31.002Z,88.54
2023-01-26T10:39:06.628Z,85.21
2023-01-26T10:41:34.145Z,84.35
2023-01-26T10:44:40.131Z,84.27
2023-01-26T10:47:17.113Z,83.65
2023-01-26T10:49:44.435Z,84.78
2023-01-26T10:52:27.922Z,86.97
2023-01-26T10:55:21.207Z,90.28
2023-01-26T10:57:48.217Z,92.60
2023-01-26T11:00:23.864Z,93.04
2023-01-26T11:02:56.172Z,94.28
2023-01-26T11:05:27.074Z,94.48
2023-01-26T11:07:58.972Z,96.64
2023-01-26T11:10:28.599Z,98.99
2023-01-26T11:13:20.447Z,99.18
2023-01-26T11:16:01.553Z,100.00
2023-01-26T11:18:34.730Z,100.00
2023-01-26T11:21:18.675Z,100.00
2023-01-26T11:24:00.848Z,99.24
2023-01-26T11:26:45.695Z,99.55
2023-01-26T11:29:30.651Z,99.00
2023-01-26T11:32:03.907Z,100.00
2023-01-26T11:34:55.594Z,98.87
2023-01-26T11:37:56.209Z,98.56
2023-01-26T11:40:40.103Z,98.64
2023-01-26T11:43:13.725Z,99.57
2023-01-26T11:46:04.302Z,98.46
2023-01-26T11:49:01.969Z,97.21
2023-01-26T11:51:53.563Z,95.58
2023-01-26T11:54:36.308Z,97.28
2023-01-26T11:57:09.186Z,95.55
2023-01-26T11:59:45.686Z,97.17
2023-01-26T12:02:36.883Z,96.69
2023-01-26T12:05:12.762Z,94.73
2023-01-26T12:07:54.695Z,95.74
2023-01-26T12:10:31.615Z,92.75
2023-01-26T12:13:08.104Z,93.61
2023-01-26T12:15:38.534Z,93.27
2023-01-26T12:18:26.292Z,93.95
2023-01-26T12:21:11.829Z,92.09
2023-01-26T12:24:00.229Z,92.73
2023-01-26T12:26:32.377Z,93.13
2023-01-26T12:29:14.203Z,93.05
2023-01-26T12:31:45.949Z,93.68
2023-01-26T12:34:14.056Z,94.53
2023-01-26T12:36:53.052Z,92.39
2023-01-26T12:39:37.465Z,89.26
2023-01-26T12:42:43.775Z,92.58
2023-01-26T12:45:25.201Z,94.72
2023-01-26T12:48:07.863Z,91.82
2023-01-26T12:50:59.645Z,91.03
2023-01-26T12:53:49.623Z,92.89
2023-01-26T12:56:32.594Z,94.01
2023-01-26T12:59:07.056Z,92.16
2023-01-26T13:01:43.487Z,93.55
2023-01-26T13:04:16.061Z,94.47
2023-01-26T13:06:43.709Z,94.28
2023-01-26T13:09:16.551Z,95.16
2023-01-26T13:11:56.879Z,94.64
2023-01-26T13:14:50.038Z,94.46
2023-01-26T13:17:16.885Z,95.67
2023-01-26T13:19:43.682Z,95.84
2023-01-26T13:22:19.584Z,94.84
2023-01-26T13:24:49.740Z,95.46
2023-01-26T13:27:39.788Z,95.92
2023-01-26T13:30:21.950Z,95.39
2023-01-26T13:32:48.970Z,94.39
2023-01-26T13:35:20.800Z,94.59
2023-01-26T13:37:54.785Z,94.26
2023-01-26T13:40:31.105Z,92.85
2023-01-26T13:43:07.645Z,94.24
2023-01-26T13:45:56.023Z,93.80
2023-01-26T13:48:40.892Z,94.20
2023-01-26T13:51:13.143Z,93.03
2023-01-26T13:53:43.653Z,94.89
2023-01-26T13:56:27.210Z,94.43
2023-01-26T13:58:54.801Z,94.54
2023-01-26T14:01:21.818Z,93.75
2023-01-26T14:03:48.846Z,93.92
2023-01-26T14:06:22.717Z,94.80
2023-01-26T14:08:55.583Z,96.27
2023-01-26T14:11:26.832Z,95.25
2023-01-26T14:13:57.093Z,96.41
2023-01-26T14:16:36.279Z,96.92
2023-01-26T14:19:09.144Z,98.71
2023-01-26T14:21:49.132Z,98.85
2023-01-26T14:24:16.783Z,99.75
2023-01-26T14:26:43.941Z,98.35
2023-01-26T14:29:21.757Z,98.79
2023-01-26T14:31:50.238Z,97.72
2023-01-26T14:34:23.616Z,98.22
2023-01-26T14:37:14.597Z,98.30
2023-01-26T14:39:48.210Z,97.24
2023-01-26T14:42:20.359Z,95.58
2023-01-26T14:44:47.614Z,95.49
2023-01-26T14:47:33.629Z,96.47
2023-01-26T14:50:03.197Z,96.48
2023-01-26T14:52:39.803Z,97.02
2023-01-26T14:55:16.569Z,96.44
2023-01-26T14:57:43.591Z,96.50
2023-01-26T15:00:26.025Z,96.64
2023-01-26T15:02:56.525Z,95.22
2023-01-26T15:05:32.936Z,95.62
2023-01-26T15:08:26.961Z,95.44
2023-01-26T15:11:16.445Z,95.71
2023-01-26T15:13:45.777Z,94.19
2023-01-26T15:16:21.283Z,95.54
2023-01-26T15:18:59.656Z,94.62
2023-01-26T15:21:40.341Z,94.34
2023-01-26T15:24:14.297Z,94.37
2023-01-26T15:26:43.270Z,95.64
2023-01-26T15:29:36.640Z,94.26
2023-01-26T15:32:03.603Z,94.96
2023-01-26T15:34:38.792Z,95.32
2023-01-26T15:37:32.030Z,95.34
2023-01-26T15:39:59.560Z,94.64
2023-01-26T15:42:30.334Z,94.69
2023-01-26T15:44:57.854Z,95.44
2023-01-26T15:47:24.853Z,95.24
2023-01-26T15:49:52.173Z,95.29
2023-01-26T15:52:24.901Z,95.59
2023-01-26T15:54:54.068Z,95.74
2023-01-26T15:57:21.126Z,96.08
2023-01-26T15:59:48.107Z,95.26
2023-01-26T16:02:17.961Z,95.13
2023-01-26T16:04:45.439Z,95.94
2023-01-26T16:07:14.971Z,95.15
2023-01-26T16:09:42.697Z,96.80
2023-01-26T16:12:30.390Z,96.11
2023-01-26T16:14:58.161Z,94.81
2023-01-26T16:17:25.104Z,95.09
2023-01-26T16:19:52.046Z,95.63
2023-01-26T16:22:19.081Z,96.10
2023-01-26T16:24:47.201Z,96.57
2023-01-26T16:27:14.235Z,95.09
2023-01-26T16:29:41.252Z,93.66
2023-01-26T16:32:28.407Z,94.20
2023-01-26T16:34:55.332Z,92.73
2023-01-26T16:37:22.186Z,92.58
2023-01-26T16:39:49.106Z,91.92
2023-01-26T16:42:19.662Z,92.15
2023-01-26T16:44:47.193Z,91.93
2023-01-26T16:47:14.551Z,91.86
2023-01-26T16:49:41.423Z,91.66
2023-01-26T16:52:08.986Z,91.69
2023-01-26T16:54:35.944Z,91.83
2023-01-26T16:57:02.921Z,89.47
2023-01-26T16:59:30.263Z,91.31
2023-01-26T17:01:57.452Z,90.91
2023-01-26T17:04:24.516Z,90.78
2023-01-26T17:06:51.534Z,91.99
2023-01-26T17:09:18.479Z,91.98
2023-01-26T17:11:45.402Z,91.86
2023-01-26T17:14:13.233Z,90.71
2023-01-26T17:16:40.252Z,92.29
2023-01-26T17:19:09.145Z,92.59
2023-01-26T17:21:37.241Z,91.18
2023-01-26T17:24:04.623Z,91.46
2023-01-26T17:26:31.677Z,91.12
2023-01-26T17:28:58.623Z,90.20
2023-01-26T17:31:25.986Z,90.60
2023-01-26T17:33:54.777Z,92.01
2023-01-26T17:36:21.713Z,93.31
2023-01-26T17:38:49.444Z,92.52
2023-01-26T17:41:17.206Z,93.18
2023-01-26T17:43:44.285Z,92.46
2023-01-26T17:46:16.497Z,93.09
2023-01-26T17:48:45.337Z,92.57
2023-01-26T17:51:16.794Z,94.05
2023-01-26T17:53:46.250Z,94.59
2023-01-26T17:56:16.597Z,96.33
2023-01-26T17:58:48.360Z,96.29
2023-01-26T18:01:15.525Z,95.94
2023-01-26T18:03:43.387Z,96.61
2023-01-26T18:06:11.244Z,96.79
2023-01-26T18:08:39.203Z,96.59
2023-01-26T18:11:09.189Z,98.02
2023-01-26T18:13:36.457Z,98.71
2023-01-26T18:16:06.573Z,97.68
2023-01-26T18:18:33.963Z,99.71
2023-01-26T18:21:16.778Z,99.94
2023-01-26T18:23:45.255Z,99.41
2023-01-26T18:26:12.243Z,100.00
2023-01-26T18:28:43.227Z,99.20
2023-01-26T18:31:11.721Z,99.25
2023-01-26T18:33:38.672Z,99.00
2023-01-26T18:36:09.471Z,98.83
2023-01-26T18:38:39.917Z,100.00
2023-01-26T18:41:15.092Z,100.00
2023-01-26T18:43:43.104Z,100.00
2023-01-26T18:46:10.299Z,100.00
2023-01-26T18:48:37.468Z,100.00
2023-01-26T18:51:05.043Z,100.00
2023-01-26T18:53:31.966Z,100.00
2023-01-26T18:56:05.034Z,100.00
2023-01-26T18:58:32.993Z,100.00
2023-01-26T19:01:01.217Z,100.00
2023-01-26T19:03:28.125Z,100.00
2023-01-26T19:05:55.039Z,100.00
2023-01-26T19:08:25.060Z,100.00
2023-01-26T19:10:52.204Z,100.00
2023-01-26T19:13:19.088Z,100.00
2023-01-26T19:15:47.692Z,100.00
2023-01-26T19:18:15.495Z,100.00
2023-01-26T19:20:42.552Z,100.00
2023-01-26T19:23:10.284Z,100.00
2023-01-26T19:25:37.801Z,100.00
2023-01-26T19:28:05.124Z,100.00
2023-01-26T19:30:33.325Z,100.00
2023-01-26T19:33:18.869Z,100.00
2023-01-26T19:35:45.996Z,99.16
2023-01-26T19:38:13.108Z,98.36
2023-01-26T19:40:40.058Z,99.32
2023-01-26T19:43:07.023Z,98.33
2023-01-26T19:45:33.938Z,97.39
2023-01-26T19:48:00.836Z,96.97
2023-01-26T19:50:27.778Z,96.68
2023-01-26T19:52:54.755Z,98.62
2023-01-26T19:55:21.685Z,98.68
2023-01-26T19:57:48.620Z,98.93
2023-01-26T20:00:16.329Z,98.02
2023-01-26T20:02:43.368Z,97.66
2023-01-26T20:05:10.546Z,99.17
2023-01-26T20:07:37.866Z,98.82
2023-01-26T20:10:06.353Z,99.18
2023-01-26T20:12:33.628Z,98.97
2023-01-26T20:15:00.899Z,97.85
2023-01-26T20:17:27.984Z,98.75
2023-01-26T20:19:56.156Z,97.72
2023-01-26T20:22:24.303Z,98.02
2023-01-26T20:24:51.227Z,97.77
2023-01-26T20:27:18.192Z,97.55
2023-01-26T20:29:45.117Z,96.72
2023-01-26T20:32:12.125Z,95.04
2023-01-26T20:34:41.024Z,96.29
2023-01-26T20:37:08.895Z,96.25
2023-01-26T20:39:35.791Z,97.03
2023-01-26T20:42:02.721Z,97.46
2023-01-26T20:44:29.953Z,97.93
2023-01-26T20:46:56.935Z,99.17
2023-01-26T20:49:24.157Z,97.07
2023-01-26T20:51:51.252Z,96.94
2023-01-26T20:54:18.164Z,97.17
2023-01-26T20:56:50.358Z,96.77
2023-01-26T20:59:18.421Z,95.95
2023-01-26T21:01:45.381Z,94.99
2023-01-26T21:04:12.263Z,95.61
2023-01-26T21:06:39.759Z,95.55
2023-01-26T21:09:06.715Z,96.40
2023-01-26T21:11:34.625Z,95.25
2023-01-26T21:14:02.788Z,94.11
2023-01-26T21:16:31.441Z,93.39
2023-01-26T21:18:58.939Z,92.95
2023-01-26T21:21:26.259Z,93.12
2023-01-26T21:23:53.312Z,93.63
2023-01-26T21:26:23.236Z,94.93
2023-01-26T21:28:55.641Z,94.35
2023-01-26T21:31:25.611Z,94.75
2023-01-26T21:33:53.447Z,96.67
2023-01-26T21:36:22.918Z,98.16
2023-01-26T21:38:52.204Z,99.70
2023-01-26T21:41:42.994Z,100.00
2023-01-26T21:44:12.878Z,99.50
2023-01-26T21:46:40.262Z,99.24
2023-01-26T21:49:08.227Z,99.30
2023-01-26T21:51:53.768Z,96.88
2023-01-26T21:54:20.783Z,97.79
2023-01-26T21:56:47.748Z,98.85
2023-01-26T21:59:16.309Z,97.37
2023-01-26T22:01:46.077Z,97.17
2023-01-26T22:04:16.688Z,96.11
2023-01-26T22:06:43.789Z,97.28
2023-01-26T22:09:12.581Z,95.91
2023-01-26T22:11:39.847Z,94.87
2023-01-26T22:14:08.340Z,94.38
2023-01-26T22:16:35.263Z,95.77
2023-01-26T22:19:02.203Z,94.55
2023-01-26T22:21:29.260Z,93.94
2023-01-26T22:23:56.190Z,94.85
2023-01-26T22:26:23.440Z,95.93
2023-01-26T22:28:52.757Z,97.61
2023-01-26T22:31:22.587Z,96.89
2023-01-26T22:33:50.376Z,95.26
2023-01-26T22:36:17.499Z,95.51
2023-01-26T22:38:45.426Z,95.40
2023-01-26T22:41:19.821Z,95.70
2023-01-26T22:43:51.388Z,95.78
2023-01-26T22:46:20.807Z,94.86
2023-01-26T22:48:48.381Z,94.70
2023-01-26T22:51:21.035Z,94.19
2023-01-26T22:53:52.708Z,95.22
2023-01-26T22:56:20.191Z,93.61
2023-01-26T22:58:58.446Z,95.70
2023-01-26T23:01:28.448Z,95.04
2023-01-26T23:03:56.395Z,94.25
2023-01-26T23:06:24.293Z,94.20
2023-01-26T23:08:51.318Z,94.82
2023-01-26T23:11:23.666Z,96.21
2023-01-26T23:13:52.648Z,96.54
2023-01-26T23:16:21.437Z,95.95
2023-01-26T23:18:48.419Z,94.86
2023-01-26T23:21:15.415Z,96.28
2023-01-26T23:23:42.461Z,95.71
2023-01-26T23:26:10.087Z,95.42
2023-01-26T23:28:40.256Z,95.56
2023-01-26T23:31:08.389Z,97.22
2023-01-26T23:33:36.475Z,95.79
2023-01-26T23:36:04.729Z,95.66
2023-01-26T23:38:32.133Z,96.94
2023-01-26T23:41:00.617Z,96.67
2023-01-26T23:43:27.880Z,97.80
2023-01-26T23:45:56.747Z,96.73
2023-01-26T23:48:24.760Z,95.46
2023-01-26T23:51:00.209Z,95.30
2023-01-26T23:53:28.469Z,96.44
2023-01-26T23:55:57.560Z,96.17
2023-01-26T23:58:24.738Z,95.71
